sensor_id;sensor_type;location;lat;lon;timestamp;P1;durP1;ratioP1;P2;durP2;ratioP2
55641;SDS011;41509;53.108;6.100;2023-10-31T00:01:50;4.60;;;0.98;;
55641;SDS011;41509;53.108;6.100;2023-10-31T00:04:16;3.87;;;1.40;;
55641;SDS011;41509;53.108;6.100;2023-10-31T00:06:42;3.70;;;1.25;;
55641;SDS011;41509;53.108;6.100;2023-10-31T00:09:10;6.45;;;1.40;;
55641;SDS011;41509;53.108;6.100;2023-10-31T00:11:40;4.55;;;1.48;;
55641;SDS011;41509;53.108;6.100;2023-10-31T00:14:06;4.57;;;1.15;;
55641;SDS011;41509;53.108;6.100;2023-10-31T00:16:34;3.05;;;1.50;;
55641;SDS011;41509;53.108;6.100;2023-10-31T00:19:02;4.93;;;1.30;;
55641;SDS011;41509;53.108;6.100;2023-10-31T00:21:28;4.87;;;1.20;;
55641;SDS011;41509;53.108;6.100;2023-10-31T00:23:53;6.47;;;1.67;;
55641;SDS011;41509;53.108;6.100;2023-10-31T00:26:19;3.97;;;1.73;;
55641;SDS011;41509;53.108;6.100;2023-10-31T00:28:45;4.53;;;1.07;;
55641;SDS011;41509;53.108;6.100;2023-10-31T00:31:10;2.77;;;1.23;;
55641;SDS011;41509;53.108;6.100;2023-10-31T00:33:36;4.00;;;0.95;;
55641;SDS011;41509;53.108;6.100;2023-10-31T00:36:03;1.98;;;0.80;;
55641;SDS011;41509;53.108;6.100;2023-10-31T00:38:29;2.25;;;1.17;;
55641;SDS011;41509;53.108;6.100;2023-10-31T00:40:54;4.97;;;1.40;;
55641;SDS011;41509;53.108;6.100;2023-10-31T00:43:20;6.43;;;1.80;;
55641;SDS011;41509;53.108;6.100;2023-10-31T00:45:45;4.20;;;1.60;;
55641;SDS011;41509;53.108;6.100;2023-10-31T00:48:11;3.70;;;1.37;;
55641;SDS011;41509;53.108;6.100;2023-10-31T00:50:37;3.53;;;1.17;;
55641;SDS011;41509;53.108;6.100;2023-10-31T00:53:02;4.50;;;1.30;;
55641;SDS011;41509;53.108;6.100;2023-10-31T00:55:28;5.10;;;1.40;;
55641;SDS011;41509;53.108;6.100;2023-10-31T00:57:53;5.13;;;1.33;;
55641;SDS011;41509;53.108;6.100;2023-10-31T01:00:19;3.07;;;1.17;;
55641;SDS011;41509;53.108;6.100;2023-10-31T01:02:47;2.85;;;0.90;;
55641;SDS011;41509;53.108;6.100;2023-10-31T01:05:13;4.63;;;1.00;;
55641;SDS011;41509;53.108;6.100;2023-10-31T01:07:39;3.00;;;0.95;;
55641;SDS011;41509;53.108;6.100;2023-10-31T01:10:08;3.33;;;1.03;;
55641;SDS011;41509;53.108;6.100;2023-10-31T01:12:33;2.95;;;0.90;;
55641;SDS011;41509;53.108;6.100;2023-10-31T01:14:59;3.50;;;0.90;;
55641;SDS011;41509;53.108;6.100;2023-10-31T01:17:25;3.08;;;1.00;;
55641;SDS011;41509;53.108;6.100;2023-10-31T01:19:53;4.83;;;0.70;;
55641;SDS011;41509;53.108;6.100;2023-10-31T01:22:19;1.10;;;0.50;;
55641;SDS011;41509;53.108;6.100;2023-10-31T01:24:45;1.87;;;0.70;;
55641;SDS011;41509;53.108;6.100;2023-10-31T01:27:10;4.27;;;0.80;;
55641;SDS011;41509;53.108;6.100;2023-10-31T01:29:38;4.63;;;0.80;;
55641;SDS011;41509;53.108;6.100;2023-10-31T01:32:04;5.47;;;0.97;;
55641;SDS011;41509;53.108;6.100;2023-10-31T01:34:30;2.38;;;0.90;;
55641;SDS011;41509;53.108;6.100;2023-10-31T01:36:55;4.07;;;0.97;;
55641;SDS011;41509;53.108;6.100;2023-10-31T01:39:21;5.97;;;1.10;;
55641;SDS011;41509;53.108;6.100;2023-10-31T01:41:46;3.13;;;0.83;;
55641;SDS011;41509;53.108;6.100;2023-10-31T01:44:13;5.10;;;1.13;;
55641;SDS011;41509;53.108;6.100;2023-10-31T01:46:39;3.33;;;0.93;;
55641;SDS011;41509;53.108;6.100;2023-10-31T01:49:14;2.70;;;1.20;;
55641;SDS011;41509;53.108;6.100;2023-10-31T01:51:40;3.70;;;1.67;;
55641;SDS011;41509;53.108;6.100;2023-10-31T01:56:31;2.80;;;1.23;;
55641;SDS011;41509;53.108;6.100;2023-10-31T01:58:57;4.43;;;1.30;;
55641;SDS011;41509;53.108;6.100;2023-10-31T02:01:25;3.45;;;1.48;;
55641;SDS011;41509;53.108;6.100;2023-10-31T02:03:51;2.85;;;1.60;;
55641;SDS011;41509;53.108;6.100;2023-10-31T02:06:18;5.03;;;2.13;;
55641;SDS011;41509;53.108;6.100;2023-10-31T02:08:47;4.40;;;2.53;;
55641;SDS011;41509;53.108;6.100;2023-10-31T02:11:13;5.30;;;2.30;;
55641;SDS011;41509;53.108;6.100;2023-10-31T02:13:38;6.60;;;2.07;;
55641;SDS011;41509;53.108;6.100;2023-10-31T02:16:07;5.18;;;2.65;;
55641;SDS011;41509;53.108;6.100;2023-10-31T02:18:33;7.13;;;3.00;;
55641;SDS011;41509;53.108;6.100;2023-10-31T02:20:58;6.30;;;2.57;;
55641;SDS011;41509;53.108;6.100;2023-10-31T02:23:24;9.63;;;2.30;;
55641;SDS011;41509;53.108;6.100;2023-10-31T02:25:52;10.52;;;2.47;;
55641;SDS011;41509;53.108;6.100;2023-10-31T02:28:20;3.67;;;1.65;;
55641;SDS011;41509;53.108;6.100;2023-10-31T02:30:49;3.90;;;1.50;;
55641;SDS011;41509;53.108;6.100;2023-10-31T02:33:15;9.23;;;1.88;;
55641;SDS011;41509;53.108;6.100;2023-10-31T02:35:40;5.83;;;1.77;;
55641;SDS011;41509;53.108;6.100;2023-10-31T02:38:11;7.43;;;1.55;;
55641;SDS011;41509;53.108;6.100;2023-10-31T02:40:36;3.58;;;1.90;;
55641;SDS011;41509;53.108;6.100;2023-10-31T02:43:02;5.37;;;1.20;;
55641;SDS011;41509;53.108;6.100;2023-10-31T02:45:27;3.93;;;1.40;;
55641;SDS011;41509;53.108;6.100;2023-10-31T02:47:53;2.57;;;1.17;;
55641;SDS011;41509;53.108;6.100;2023-10-31T02:52:45;7.40;;;1.58;;
55641;SDS011;41509;53.108;6.100;2023-10-31T02:55:11;7.60;;;1.60;;
55641;SDS011;41509;53.108;6.100;2023-10-31T02:57:36;6.70;;;1.40;;
55641;SDS011;41509;53.108;6.100;2023-10-31T03:00:05;3.38;;;1.15;;
55641;SDS011;41509;53.108;6.100;2023-10-31T03:02:31;10.52;;;2.05;;
55641;SDS011;41509;53.108;6.100;2023-10-31T03:04:57;6.77;;;1.53;;
55641;SDS011;41509;53.108;6.100;2023-10-31T03:07:22;6.90;;;1.87;;
55641;SDS011;41509;53.108;6.100;2023-10-31T03:09:48;4.63;;;1.37;;
55641;SDS011;41509;53.108;6.100;2023-10-31T03:12:14;4.57;;;1.50;;
55641;SDS011;41509;53.108;6.100;2023-10-31T03:14:39;4.97;;;2.13;;
55641;SDS011;41509;53.108;6.100;2023-10-31T03:17:05;7.30;;;2.03;;
55641;SDS011;41509;53.108;6.100;2023-10-31T03:19:30;6.53;;;2.17;;
55641;SDS011;41509;53.108;6.100;2023-10-31T03:21:56;6.53;;;2.30;;
55641;SDS011;41509;53.108;6.100;2023-10-31T03:24:22;3.57;;;1.40;;
55641;SDS011;41509;53.108;6.100;2023-10-31T03:26:50;4.03;;;2.30;;
55641;SDS011;41509;53.108;6.100;2023-10-31T03:29:18;7.32;;;2.20;;
55641;SDS011;41509;53.108;6.100;2023-10-31T03:31:44;6.20;;;2.00;;
55641;SDS011;41509;53.108;6.100;2023-10-31T03:34:12;4.85;;;1.90;;
55641;SDS011;41509;53.108;6.100;2023-10-31T03:36:40;7.60;;;1.98;;
55641;SDS011;41509;53.108;6.100;2023-10-31T03:39:06;2.93;;;1.80;;
55641;SDS011;41509;53.108;6.100;2023-10-31T03:41:31;12.13;;;2.33;;
55641;SDS011;41509;53.108;6.100;2023-10-31T03:44:00;5.57;;;1.85;;
55641;SDS011;41509;53.108;6.100;2023-10-31T03:46:29;8.23;;;1.52;;
55641;SDS011;41509;53.108;6.100;2023-10-31T03:48:54;6.10;;;1.17;;
55641;SDS011;41509;53.108;6.100;2023-10-31T03:51:20;6.27;;;1.30;;
55641;SDS011;41509;53.108;6.100;2023-10-31T03:53:45;5.17;;;1.83;;
55641;SDS011;41509;53.108;6.100;2023-10-31T03:56:11;6.00;;;1.33;;
55641;SDS011;41509;53.108;6.100;2023-10-31T03:58:40;2.83;;;0.80;;
55641;SDS011;41509;53.108;6.100;2023-10-31T04:01:07;4.55;;;1.08;;
55641;SDS011;41509;53.108;6.100;2023-10-31T04:03:33;3.77;;;1.30;;
55641;SDS011;41509;53.108;6.100;2023-10-31T04:05:58;4.30;;;1.40;;
55641;SDS011;41509;53.108;6.100;2023-10-31T04:08:27;4.50;;;1.33;;
55641;SDS011;41509;53.108;6.100;2023-10-31T04:10:53;4.93;;;1.08;;
55641;SDS011;41509;53.108;6.100;2023-10-31T04:13:21;1.50;;;0.60;;
55641;SDS011;41509;53.108;6.100;2023-10-31T04:15:46;3.80;;;0.70;;
55641;SDS011;41509;53.108;6.100;2023-10-31T04:18:12;1.90;;;0.50;;
55641;SDS011;41509;53.108;6.100;2023-10-31T04:20:38;1.33;;;0.52;;
55641;SDS011;41509;53.108;6.100;2023-10-31T04:23:03;2.38;;;0.65;;
55641;SDS011;41509;53.108;6.100;2023-10-31T04:25:30;2.33;;;0.80;;
55641;SDS011;41509;53.108;6.100;2023-10-31T04:27:56;1.03;;;0.33;;
55641;SDS011;41509;53.108;6.100;2023-10-31T04:30:21;1.37;;;0.87;;
55641;SDS011;41509;53.108;6.100;2023-10-31T04:32:47;2.70;;;0.73;;
55641;SDS011;41509;53.108;6.100;2023-10-31T04:35:12;0.97;;;0.30;;
55641;SDS011;41509;53.108;6.100;2023-10-31T04:37:41;2.67;;;0.50;;
55641;SDS011;41509;53.108;6.100;2023-10-31T04:40:09;2.30;;;0.50;;
55641;SDS011;41509;53.108;6.100;2023-10-31T04:42:38;3.78;;;0.30;;
55641;SDS011;41509;53.108;6.100;2023-10-31T04:45:07;2.70;;;0.30;;
55641;SDS011;41509;53.108;6.100;2023-10-31T04:47:34;4.15;;;0.32;;
55641;SDS011;41509;53.108;6.100;2023-10-31T04:49:59;2.93;;;0.50;;
55641;SDS011;41509;53.108;6.100;2023-10-31T04:52:31;2.90;;;0.30;;
55641;SDS011;41509;53.108;6.100;2023-10-31T04:54:56;1.58;;;0.50;;
55641;SDS011;41509;53.108;6.100;2023-10-31T04:57:24;1.92;;;0.28;;
55641;SDS011;41509;53.108;6.100;2023-10-31T04:59:49;1.77;;;0.40;;
55641;SDS011;41509;53.108;6.100;2023-10-31T05:02:16;1.45;;;0.65;;
55641;SDS011;41509;53.108;6.100;2023-10-31T05:04:50;2.50;;;0.45;;
55641;SDS011;41509;53.108;6.100;2023-10-31T05:07:21;3.10;;;0.30;;
55641;SDS011;41509;53.108;6.100;2023-10-31T05:09:47;2.22;;;0.30;;
55641;SDS011;41509;53.108;6.100;2023-10-31T05:12:13;1.20;;;0.50;;
55641;SDS011;41509;53.108;6.100;2023-10-31T05:14:39;1.23;;;0.27;;
55641;SDS011;41509;53.108;6.100;2023-10-31T05:17:07;1.33;;;0.50;;
55641;SDS011;41509;53.108;6.100;2023-10-31T05:19:33;4.45;;;0.47;;
55641;SDS011;41509;53.108;6.100;2023-10-31T05:22:01;1.55;;;0.52;;
55641;SDS011;41509;53.108;6.100;2023-10-31T05:24:29;2.95;;;0.63;;
55641;SDS011;41509;53.108;6.100;2023-10-31T05:26:54;1.70;;;0.60;;
55641;SDS011;41509;53.108;6.100;2023-10-31T05:29:20;0.87;;;0.40;;
55641;SDS011;41509;53.108;6.100;2023-10-31T05:31:45;4.13;;;0.73;;
55641;SDS011;41509;53.108;6.100;2023-10-31T05:36:38;2.17;;;0.60;;
55641;SDS011;41509;53.108;6.100;2023-10-31T05:39:03;4.13;;;0.63;;
55641;SDS011;41509;53.108;6.100;2023-10-31T05:41:29;1.27;;;0.63;;
55641;SDS011;41509;53.108;6.100;2023-10-31T05:43:55;2.50;;;0.57;;
55641;SDS011;41509;53.108;6.100;2023-10-31T05:46:20;5.23;;;0.80;;
55641;SDS011;41509;53.108;6.100;2023-10-31T05:48:46;1.07;;;0.40;;
55641;SDS011;41509;53.108;6.100;2023-10-31T05:51:15;1.73;;;0.85;;
55641;SDS011;41509;53.108;6.100;2023-10-31T05:53:46;1.95;;;0.70;;
55641;SDS011;41509;53.108;6.100;2023-10-31T05:56:13;1.52;;;0.60;;
55641;SDS011;41509;53.108;6.100;2023-10-31T05:58:40;1.88;;;0.50;;
55641;SDS011;41509;53.108;6.100;2023-10-31T06:01:06;1.70;;;0.60;;
55641;SDS011;41509;53.108;6.100;2023-10-31T06:05:58;1.83;;;0.80;;
55641;SDS011;41509;53.108;6.100;2023-10-31T06:08:27;1.75;;;0.90;;
55641;SDS011;41509;53.108;6.100;2023-10-31T06:10:56;2.20;;;0.80;;
55641;SDS011;41509;53.108;6.100;2023-10-31T06:13:22;2.90;;;0.70;;
55641;SDS011;41509;53.108;6.100;2023-10-31T06:15:48;4.82;;;0.88;;
55641;SDS011;41509;53.108;6.100;2023-10-31T06:18:14;2.43;;;0.90;;
55641;SDS011;41509;53.108;6.100;2023-10-31T06:20:39;3.60;;;1.30;;
55641;SDS011;41509;53.108;6.100;2023-10-31T06:23:07;2.07;;;0.97;;
55641;SDS011;41509;53.108;6.100;2023-10-31T06:25:36;3.45;;;1.08;;
55641;SDS011;41509;53.108;6.100;2023-10-31T06:28:04;3.13;;;0.90;;
55641;SDS011;41509;53.108;6.100;2023-10-31T06:30:35;1.97;;;0.70;;
55641;SDS011;41509;53.108;6.100;2023-10-31T06:33:04;5.63;;;1.60;;
55641;SDS011;41509;53.108;6.100;2023-10-31T06:35:29;3.53;;;1.00;;
55641;SDS011;41509;53.108;6.100;2023-10-31T06:37:57;6.68;;;1.17;;
55641;SDS011;41509;53.108;6.100;2023-10-31T06:40:26;2.57;;;1.00;;
55641;SDS011;41509;53.108;6.100;2023-10-31T06:42:54;6.38;;;1.00;;
55641;SDS011;41509;53.108;6.100;2023-10-31T06:45:20;2.43;;;0.97;;
55641;SDS011;41509;53.108;6.100;2023-10-31T06:47:48;1.80;;;0.70;;
55641;SDS011;41509;53.108;6.100;2023-10-31T06:50:13;2.10;;;1.10;;
55641;SDS011;41509;53.108;6.100;2023-10-31T06:52:39;3.33;;;1.20;;
55641;SDS011;41509;53.108;6.100;2023-10-31T06:55:07;3.20;;;1.15;;
55641;SDS011;41509;53.108;6.100;2023-10-31T06:57:33;4.22;;;0.85;;
55641;SDS011;41509;53.108;6.100;2023-10-31T06:59:59;2.67;;;1.00;;
55641;SDS011;41509;53.108;6.100;2023-10-31T07:02:24;2.47;;;1.10;;
55641;SDS011;41509;53.108;6.100;2023-10-31T07:04:51;2.20;;;0.75;;
55641;SDS011;41509;53.108;6.100;2023-10-31T07:07:16;4.65;;;1.15;;
55641;SDS011;41509;53.108;6.100;2023-10-31T07:09:48;2.33;;;0.70;;
55641;SDS011;41509;53.108;6.100;2023-10-31T07:12:13;4.28;;;0.75;;
55641;SDS011;41509;53.108;6.100;2023-10-31T07:14:43;4.85;;;0.70;;
55641;SDS011;41509;53.108;6.100;2023-10-31T07:17:08;2.53;;;0.97;;
55641;SDS011;41509;53.108;6.100;2023-10-31T07:19:34;5.27;;;0.80;;
55641;SDS011;41509;53.108;6.100;2023-10-31T07:21:59;5.17;;;1.00;;
55641;SDS011;41509;53.108;6.100;2023-10-31T07:24:28;4.90;;;0.70;;
55641;SDS011;41509;53.108;6.100;2023-10-31T07:26:54;4.15;;;0.88;;
55641;SDS011;41509;53.108;6.100;2023-10-31T07:29:22;3.63;;;0.65;;
55641;SDS011;41509;53.108;6.100;2023-10-31T07:31:48;3.30;;;0.80;;
55641;SDS011;41509;53.108;6.100;2023-10-31T07:34:14;5.10;;;0.93;;
55641;SDS011;41509;53.108;6.100;2023-10-31T07:36:43;1.67;;;0.43;;
55641;SDS011;41509;53.108;6.100;2023-10-31T07:39:08;3.60;;;0.65;;
55641;SDS011;41509;53.108;6.100;2023-10-31T07:41:34;4.32;;;0.70;;
55641;SDS011;41509;53.108;6.100;2023-10-31T07:44:00;1.67;;;0.70;;
55641;SDS011;41509;53.108;6.100;2023-10-31T07:46:25;3.10;;;0.60;;
55641;SDS011;41509;53.108;6.100;2023-10-31T07:48:51;3.20;;;0.77;;
55641;SDS011;41509;53.108;6.100;2023-10-31T07:51:17;1.97;;;0.53;;
55641;SDS011;41509;53.108;6.100;2023-10-31T07:53:42;0.83;;;0.47;;
55641;SDS011;41509;53.108;6.100;2023-10-31T07:56:14;2.27;;;0.67;;
55641;SDS011;41509;53.108;6.100;2023-10-31T07:58:41;1.10;;;0.30;;
55641;SDS011;41509;53.108;6.100;2023-10-31T08:01:07;2.60;;;0.60;;
55641;SDS011;41509;53.108;6.100;2023-10-31T08:03:35;2.20;;;0.60;;
55641;SDS011;41509;53.108;6.100;2023-10-31T08:06:05;2.33;;;0.50;;
55641;SDS011;41509;53.108;6.100;2023-10-31T08:08:32;1.45;;;0.65;;
55641;SDS011;41509;53.108;6.100;2023-10-31T08:10:59;1.90;;;0.60;;
55641;SDS011;41509;53.108;6.100;2023-10-31T08:13:24;2.47;;;0.52;;
55641;SDS011;41509;53.108;6.100;2023-10-31T08:15:50;1.07;;;0.33;;
55641;SDS011;41509;53.108;6.100;2023-10-31T08:18:16;1.07;;;0.30;;
55641;SDS011;41509;53.108;6.100;2023-10-31T08:20:41;2.10;;;0.47;;
55641;SDS011;41509;53.108;6.100;2023-10-31T08:23:08;2.83;;;0.57;;
55641;SDS011;41509;53.108;6.100;2023-10-31T08:25:34;1.85;;;0.65;;
55641;SDS011;41509;53.108;6.100;2023-10-31T08:27:59;2.07;;;0.30;;
55641;SDS011;41509;53.108;6.100;2023-10-31T08:30:25;3.17;;;0.50;;
55641;SDS011;41509;53.108;6.100;2023-10-31T08:32:51;2.77;;;0.40;;
55641;SDS011;41509;53.108;6.100;2023-10-31T08:35:16;2.27;;;0.30;;
55641;SDS011;41509;53.108;6.100;2023-10-31T08:37:42;2.17;;;0.40;;
55641;SDS011;41509;53.108;6.100;2023-10-31T08:40:07;0.77;;;0.30;;
55641;SDS011;41509;53.108;6.100;2023-10-31T08:42:33;3.50;;;0.43;;
55641;SDS011;41509;53.108;6.100;2023-10-31T08:44:59;0.53;;;0.20;;
55641;SDS011;41509;53.108;6.100;2023-10-31T08:47:25;0.63;;;0.10;;
55641;SDS011;41509;53.108;6.100;2023-10-31T08:49:50;2.40;;;0.67;;
55641;SDS011;41509;53.108;6.100;2023-10-31T08:52:16;4.07;;;1.00;;
55641;SDS011;41509;53.108;6.100;2023-10-31T08:54:43;1.40;;;0.20;;
55641;SDS011;41509;53.108;6.100;2023-10-31T08:57:08;4.30;;;0.50;;
55641;SDS011;41509;53.108;6.100;2023-10-31T08:59:34;2.70;;;0.57;;
55641;SDS011;41509;53.108;6.100;2023-10-31T09:02:01;6.50;;;0.70;;
55641;SDS011;41509;53.108;6.100;2023-10-31T09:04:27;5.32;;;0.65;;
55641;SDS011;41509;53.108;6.100;2023-10-31T09:06:52;9.50;;;1.13;;
55641;SDS011;41509;53.108;6.100;2023-10-31T09:09:18;4.93;;;1.25;;
55641;SDS011;41509;53.108;6.100;2023-10-31T09:11:44;2.43;;;0.63;;
55641;SDS011;41509;53.108;6.100;2023-10-31T09:14:09;2.90;;;0.67;;
55641;SDS011;41509;53.108;6.100;2023-10-31T09:16:35;1.63;;;0.50;;
55641;SDS011;41509;53.108;6.100;2023-10-31T09:19:00;1.57;;;0.47;;
55641;SDS011;41509;53.108;6.100;2023-10-31T09:21:26;1.57;;;0.30;;
55641;SDS011;41509;53.108;6.100;2023-10-31T09:23:52;3.57;;;0.40;;
55641;SDS011;41509;53.108;6.100;2023-10-31T09:26:17;4.90;;;0.50;;
55641;SDS011;41509;53.108;6.100;2023-10-31T09:28:43;3.22;;;0.40;;
55641;SDS011;41509;53.108;6.100;2023-10-31T09:31:15;1.80;;;0.60;;
55641;SDS011;41509;53.108;6.100;2023-10-31T09:33:42;2.17;;;0.70;;
55641;SDS011;41509;53.108;6.100;2023-10-31T09:36:08;1.63;;;0.35;;
55641;SDS011;41509;53.108;6.100;2023-10-31T09:38:34;4.68;;;0.50;;
55641;SDS011;41509;53.108;6.100;2023-10-31T09:41:00;4.17;;;1.00;;
55641;SDS011;41509;53.108;6.100;2023-10-31T09:43:25;3.50;;;0.60;;
55641;SDS011;41509;53.108;6.100;2023-10-31T09:45:51;1.90;;;0.50;;
55641;SDS011;41509;53.108;6.100;2023-10-31T09:48:18;8.98;;;0.73;;
55641;SDS011;41509;53.108;6.100;2023-10-31T09:50:47;3.92;;;0.77;;
55641;SDS011;41509;53.108;6.100;2023-10-31T09:53:14;4.93;;;0.90;;
55641;SDS011;41509;53.108;6.100;2023-10-31T09:55:41;5.05;;;0.60;;
55641;SDS011;41509;53.108;6.100;2023-10-31T10:00:33;3.22;;;0.52;;
55641;SDS011;41509;53.108;6.100;2023-10-31T10:03:01;5.97;;;0.63;;
55641;SDS011;41509;53.108;6.100;2023-10-31T10:05:30;5.85;;;0.55;;
55641;SDS011;41509;53.108;6.100;2023-10-31T10:07:57;3.80;;;0.60;;
55641;SDS011;41509;53.108;6.100;2023-10-31T10:10:23;4.85;;;0.35;;
55641;SDS011;41509;53.108;6.100;2023-10-31T10:12:51;1.13;;;0.30;;
55641;SDS011;41509;53.108;6.100;2023-10-31T10:15:17;3.55;;;0.50;;
55641;SDS011;41509;53.108;6.100;2023-10-31T10:17:48;2.97;;;0.85;;
55641;SDS011;41509;53.108;6.100;2023-10-31T10:20:15;5.95;;;1.00;;
55641;SDS011;41509;53.108;6.100;2023-10-31T10:22:41;2.77;;;0.50;;
55641;SDS011;41509;53.108;6.100;2023-10-31T10:25:12;2.40;;;0.43;;
55641;SDS011;41509;53.108;6.100;2023-10-31T10:27:40;3.85;;;0.55;;
55641;SDS011;41509;53.108;6.100;2023-10-31T10:30:07;2.70;;;0.50;;
55641;SDS011;41509;53.108;6.100;2023-10-31T10:32:34;1.95;;;0.65;;
55641;SDS011;41509;53.108;6.100;2023-10-31T10:35:00;1.30;;;0.38;;
55641;SDS011;41509;53.108;6.100;2023-10-31T10:37:26;2.97;;;0.20;;
55641;SDS011;41509;53.108;6.100;2023-10-31T10:39:52;2.22;;;0.45;;
55641;SDS011;41509;53.108;6.100;2023-10-31T10:42:37;3.00;;;0.60;;
55641;SDS011;41509;53.108;6.100;2023-10-31T10:45:12;2.70;;;0.43;;
55641;SDS011;41509;53.108;6.100;2023-10-31T10:47:47;2.22;;;0.43;;
55641;SDS011;41509;53.108;6.100;2023-10-31T10:50:14;2.38;;;0.47;;
55641;SDS011;41509;53.108;6.100;2023-10-31T10:52:48;6.65;;;1.50;;
55641;SDS011;41509;53.108;6.100;2023-10-31T10:55:20;1.63;;;0.50;;
55641;SDS011;41509;53.108;6.100;2023-10-31T10:58:03;2.50;;;0.50;;
55641;SDS011;41509;53.108;6.100;2023-10-31T11:00:33;3.08;;;0.65;;
55641;SDS011;41509;53.108;6.100;2023-10-31T11:02:59;5.47;;;0.98;;
55641;SDS011;41509;53.108;6.100;2023-10-31T11:05:26;2.70;;;0.65;;
55641;SDS011;41509;53.108;6.100;2023-10-31T11:07:52;4.55;;;0.80;;
55641;SDS011;41509;53.108;6.100;2023-10-31T11:10:20;2.70;;;0.65;;
55641;SDS011;41509;53.108;6.100;2023-10-31T11:12:46;2.20;;;0.55;;
55641;SDS011;41509;53.108;6.100;2023-10-31T11:15:13;3.20;;;0.50;;
55641;SDS011;41509;53.108;6.100;2023-10-31T11:17:42;3.40;;;0.55;;
55641;SDS011;41509;53.108;6.100;2023-10-31T11:20:10;1.75;;;0.52;;
55641;SDS011;41509;53.108;6.100;2023-10-31T11:22:45;5.78;;;0.98;;
55641;SDS011;41509;53.108;6.100;2023-10-31T11:25:14;6.75;;;0.52;;
55641;SDS011;41509;53.108;6.100;2023-10-31T11:27:45;4.05;;;0.50;;
55641;SDS011;41509;53.108;6.100;2023-10-31T11:32:55;3.35;;;0.45;;
55641;SDS011;41509;53.108;6.100;2023-10-31T11:35:24;4.57;;;0.60;;
55641;SDS011;41509;53.108;6.100;2023-10-31T11:38:03;3.33;;;0.40;;
55641;SDS011;41509;53.108;6.100;2023-10-31T11:40:34;3.33;;;0.65;;
55641;SDS011;41509;53.108;6.100;2023-10-31T11:43:04;4.63;;;0.60;;
55641;SDS011;41509;53.108;6.100;2023-10-31T11:45:41;3.47;;;0.60;;
55641;SDS011;41509;53.108;6.100;2023-10-31T11:48:09;3.60;;;0.70;;
55641;SDS011;41509;53.108;6.100;2023-10-31T11:50:36;2.40;;;0.80;;
55641;SDS011;41509;53.108;6.100;2023-10-31T11:53:06;3.40;;;0.50;;
55641;SDS011;41509;53.108;6.100;2023-10-31T11:55:44;4.55;;;0.50;;
55641;SDS011;41509;53.108;6.100;2023-10-31T11:58:18;5.13;;;0.50;;
55641;SDS011;41509;53.108;6.100;2023-10-31T12:00:44;4.30;;;0.47;;
55641;SDS011;41509;53.108;6.100;2023-10-31T12:03:11;1.42;;;0.32;;
55641;SDS011;41509;53.108;6.100;2023-10-31T12:05:38;2.60;;;0.52;;
55641;SDS011;41509;53.108;6.100;2023-10-31T12:08:03;4.33;;;0.70;;
55641;SDS011;41509;53.108;6.100;2023-10-31T12:10:29;1.88;;;0.50;;
55641;SDS011;41509;53.108;6.100;2023-10-31T12:15:22;5.00;;;0.60;;
55641;SDS011;41509;53.108;6.100;2023-10-31T12:17:48;1.73;;;0.40;;
55641;SDS011;41509;53.108;6.100;2023-10-31T12:20:14;3.92;;;0.77;;
55641;SDS011;41509;53.108;6.100;2023-10-31T12:22:41;2.85;;;0.73;;
55641;SDS011;41509;53.108;6.100;2023-10-31T12:25:07;5.22;;;0.65;;
55641;SDS011;41509;53.108;6.100;2023-10-31T12:27:44;3.05;;;0.70;;
55641;SDS011;41509;53.108;6.100;2023-10-31T12:30:15;3.13;;;1.10;;
55641;SDS011;41509;53.108;6.100;2023-10-31T12:32:43;2.08;;;0.55;;
55641;SDS011;41509;53.108;6.100;2023-10-31T12:35:13;5.68;;;0.80;;
55641;SDS011;41509;53.108;6.100;2023-10-31T12:37:44;5.45;;;0.77;;
55641;SDS011;41509;53.108;6.100;2023-10-31T12:40:14;4.25;;;0.50;;
55641;SDS011;41509;53.108;6.100;2023-10-31T12:42:45;3.15;;;0.93;;
55641;SDS011;41509;53.108;6.100;2023-10-31T12:45:12;3.33;;;0.70;;
55641;SDS011;41509;53.108;6.100;2023-10-31T12:47:38;2.70;;;0.52;;
55641;SDS011;41509;53.108;6.100;2023-10-31T12:50:13;2.53;;;0.63;;
55641;SDS011;41509;53.108;6.100;2023-10-31T12:55:16;4.22;;;0.80;;
55641;SDS011;41509;53.108;6.100;2023-10-31T12:57:52;6.95;;;1.17;;
55641;SDS011;41509;53.108;6.100;2023-10-31T13:00:19;3.42;;;0.52;;
55641;SDS011;41509;53.108;6.100;2023-10-31T13:02:51;3.88;;;1.10;;
55641;SDS011;41509;53.108;6.100;2023-10-31T13:05:24;3.45;;;0.50;;
55641;SDS011;41509;53.108;6.100;2023-10-31T13:07:51;2.58;;;1.35;;
55641;SDS011;41509;53.108;6.100;2023-10-31T13:10:21;4.03;;;0.82;;
55641;SDS011;41509;53.108;6.100;2023-10-31T13:12:51;4.10;;;0.95;;
55641;SDS011;41509;53.108;6.100;2023-10-31T13:15:18;4.78;;;0.70;;
55641;SDS011;41509;53.108;6.100;2023-10-31T13:17:47;3.15;;;0.50;;
55641;SDS011;41509;53.108;6.100;2023-10-31T13:20:13;4.72;;;0.40;;
55641;SDS011;41509;53.108;6.100;2023-10-31T13:22:40;3.10;;;0.43;;
55641;SDS011;41509;53.108;6.100;2023-10-31T13:25:08;1.45;;;0.50;;
55641;SDS011;41509;53.108;6.100;2023-10-31T13:27:38;2.50;;;0.20;;
55641;SDS011;41509;53.108;6.100;2023-10-31T13:30:05;0.68;;;0.28;;
55641;SDS011;41509;53.108;6.100;2023-10-31T13:32:31;1.95;;;0.40;;
55641;SDS011;41509;53.108;6.100;2023-10-31T13:34:57;1.60;;;0.53;;
55641;SDS011;41509;53.108;6.100;2023-10-31T13:37:22;2.67;;;0.40;;
55641;SDS011;41509;53.108;6.100;2023-10-31T13:39:48;1.25;;;0.35;;
55641;SDS011;41509;53.108;6.100;2023-10-31T13:42:14;1.23;;;0.30;;
55641;SDS011;41509;53.108;6.100;2023-10-31T13:44:40;2.30;;;0.40;;
55641;SDS011;41509;53.108;6.100;2023-10-31T13:47:06;2.40;;;0.40;;
55641;SDS011;41509;53.108;6.100;2023-10-31T13:49:32;4.38;;;0.52;;
55641;SDS011;41509;53.108;6.100;2023-10-31T13:51:57;2.38;;;0.52;;
55641;SDS011;41509;53.108;6.100;2023-10-31T13:54:23;2.87;;;1.03;;
55641;SDS011;41509;53.108;6.100;2023-10-31T13:56:49;3.20;;;0.40;;
55641;SDS011;41509;53.108;6.100;2023-10-31T13:59:14;2.30;;;0.30;;
55641;SDS011;41509;53.108;6.100;2023-10-31T14:01:40;1.80;;;0.30;;
55641;SDS011;41509;53.108;6.100;2023-10-31T14:04:07;2.65;;;0.30;;
55641;SDS011;41509;53.108;6.100;2023-10-31T14:06:33;6.88;;;0.77;;
55641;SDS011;41509;53.108;6.100;2023-10-31T14:08:59;2.08;;;0.50;;
55641;SDS011;41509;53.108;6.100;2023-10-31T14:11:29;3.25;;;0.38;;
55641;SDS011;41509;53.108;6.100;2023-10-31T14:13:55;4.53;;;0.60;;
55641;SDS011;41509;53.108;6.100;2023-10-31T14:16:25;3.15;;;0.40;;
55641;SDS011;41509;53.108;6.100;2023-10-31T14:18:50;2.38;;;0.40;;
55641;SDS011;41509;53.108;6.100;2023-10-31T14:21:16;1.73;;;0.53;;
55641;SDS011;41509;53.108;6.100;2023-10-31T14:23:41;2.27;;;0.63;;
55641;SDS011;41509;53.108;6.100;2023-10-31T14:26:07;3.73;;;0.63;;
55641;SDS011;41509;53.108;6.100;2023-10-31T14:28:33;3.43;;;0.60;;
55641;SDS011;41509;53.108;6.100;2023-10-31T14:30:58;1.73;;;0.60;;
55641;SDS011;41509;53.108;6.100;2023-10-31T14:33:24;3.70;;;0.80;;
55641;SDS011;41509;53.108;6.100;2023-10-31T14:35:50;5.93;;;1.30;;
55641;SDS011;41509;53.108;6.100;2023-10-31T14:38:15;2.17;;;0.80;;
55641;SDS011;41509;53.108;6.100;2023-10-31T14:40:41;3.93;;;1.10;;
55641;SDS011;41509;53.108;6.100;2023-10-31T14:43:06;5.80;;;1.13;;
55641;SDS011;41509;53.108;6.100;2023-10-31T14:45:32;3.27;;;0.70;;
55641;SDS011;41509;53.108;6.100;2023-10-31T14:47:58;2.83;;;0.97;;
55641;SDS011;41509;53.108;6.100;2023-10-31T14:50:23;2.70;;;0.90;;
55641;SDS011;41509;53.108;6.100;2023-10-31T14:52:49;4.63;;;0.50;;
55641;SDS011;41509;53.108;6.100;2023-10-31T14:55:15;1.27;;;0.55;;
55641;SDS011;41509;53.108;6.100;2023-10-31T14:57:40;3.20;;;0.40;;
55641;SDS011;41509;53.108;6.100;2023-10-31T15:00:06;0.57;;;0.30;;
55641;SDS011;41509;53.108;6.100;2023-10-31T15:02:33;4.93;;;0.70;;
55641;SDS011;41509;53.108;6.100;2023-10-31T15:04:59;6.30;;;1.05;;
55641;SDS011;41509;53.108;6.100;2023-10-31T15:07:27;4.03;;;1.27;;